Time;durP1;ratioP1;P1;durP2;ratioP2;P2;SDS_P1;SDS_P2;PMS_P1;PMS_P2;Temp;Humidity;BMP_temperature;BMP_pressure;BME280_temperature;BME280_humidity;BME280_pressure;Samples;Min_cycle;Max_cycle;Signal;HPM_P1;HPM_P2
2022/03/23 00:01:29;;;;;;;143.55;92.55;;;128.40;2252.80;;;;;;5068084;28;20099;-76
2022/03/23 00:03:55;;;;;;;140.75;91.90;;;128.50;2252.80;;;;;;5068222;28;20159;-75
2022/03/23 00:06:22;;;;;;;137.30;88.05;;;128.50;2252.80;;;;;;5069557;28;20388;-77
2022/03/23 00:08:49;;;;;;;204.48;140.93;;;128.50;2252.80;;;;;;5070195;28;20497;-75
2022/03/23 00:11:15;;;;;;;130.18;81.80;;;128.40;2252.80;;;;;;5071468;28;20095;-75
2022/03/23 00:13:41;;;;;;;135.93;88.35;;;128.50;2252.80;;;;;;5069627;28;20131;-76
2022/03/23 00:16:07;;;;;;;184.30;111.88;;;128.40;2252.80;;;;;;5069555;28;20369;-76
2022/03/23 00:18:32;;;;;;;157.70;97.13;;;128.40;2252.80;;;;;;5071026;28;20020;-76
2022/03/23 00:20:58;;;;;;;159.13;95.35;;;128.40;2252.80;;;;;;5069778;28;20095;-76
2022/03/23 00:23:24;;;;;;;135.63;87.75;;;128.30;2252.80;;;;;;5070860;28;20033;-76
2022/03/23 00:25:50;;;;;;;133.40;81.53;;;128.30;2252.80;;;;;;5095075;28;20029;-75
2022/03/23 00:28:15;;;;;;;120.40;78.32;;;128.20;2252.80;;;;;;5067983;28;20115;-76
2022/03/23 00:30:42;;;;;;;129.07;80.88;;;128.20;2252.80;;;;;;5070142;28;20095;-76
2022/03/23 00:33:08;;;;;;;114.53;70.82;;;128.10;2252.80;;;;;;5071257;28;20116;-76
2022/03/23 00:35:34;;;;;;;101.65;64.30;;;128.10;2252.80;;;;;;5071946;28;20108;-75
2022/03/23 00:38:00;;;;;;;91.40;51.03;;;128.10;2252.80;;;;;;5071420;28;20056;-76
2022/03/23 00:40:30;;;;;;;63.30;41.65;;;128.10;2252.80;;;;;;5068206;28;20028;-76
2022/03/23 00:42:58;;;;;;;70.38;42.78;;;128.10;2252.80;;;;;;5070593;28;20047;-77
2022/03/23 00:45:24;;;;;;;62.92;40.13;;;128.10;2252.80;;;;;;5070269;28;20060;-77
2022/03/23 00:47:50;;;;;;;67.13;41.00;;;128.10;2252.80;;;;;;5070342;28;20024;-77
2022/03/23 00:50:16;;;;;;;117.35;70.63;;;128.10;2252.80;;;;;;5067467;28;20070;-76
2022/03/23 00:52:42;;;;;;;130.63;75.25;;;128.00;2252.80;;;;;;5071354;28;20056;-76
2022/03/23 00:55:09;;;;;;;135.35;86.18;;;103.30;2227.20;;;;;;5068105;28;20025;-76
2022/03/23 00:57:36;;;;;;;142.52;88.05;;;103.30;2227.20;;;;;;5071009;28;20436;-76
2022/03/23 01:00:06;;;;;;;119.35;72.05;;;103.20;2227.20;;;;;;5070171;28;20020;-76
2022/03/23 01:02:34;;;;;;;122.43;69.28;;;103.00;2227.20;;;;;;5071474;28;20021;-76
2022/03/23 01:05:02;;;;;;;108.20;71.32;;;102.70;2227.20;;;;;;5068220;28;20499;-76
2022/03/23 01:07:27;;;;;;;118.57;69.70;;;102.70;2227.20;;;;;;5063080;28;20036;-76
2022/03/23 01:09:53;;;;;;;116.93;70.30;;;102.60;2227.20;;;;;;5070162;28;20037;-76
2022/03/23 01:12:19;;;;;;;111.75;68.07;;;102.70;2227.20;;;;;;5074648;28;20048;-76
2022/03/23 01:14:45;;;;;;;112.22;67.00;;;102.70;2227.20;;;;;;5068683;28;20024;-75
2022/03/23 01:17:10;;;;;;;103.03;64.80;;;102.70;2227.20;;;;;;5070248;28;20021;-76
2022/03/23 01:19:36;;;;;;;97.35;61.13;;;102.80;2227.20;;;;;;5070023;28;20024;-75
2022/03/23 01:22:04;;;;;;;112.22;66.65;;;102.80;2227.20;;;;;;5068337;28;20021;-76
2022/03/23 01:24:30;;;;;;;103.00;62.53;;;102.70;2227.20;;;;;;5069036;28;20029;-75
2022/03/23 01:26:56;;;;;;;109.78;67.00;;;102.70;2227.20;;;;;;5069773;28;20040;-76
2022/03/23 01:29:22;;;;;;;106.00;64.40;;;102.70;2227.20;;;;;;5072775;28;20426;-76
2022/03/23 01:31:48;;;;;;;109.07;69.47;;;102.70;2227.20;;;;;;5072372;28;20456;-76
2022/03/23 01:34:14;;;;;;;121.70;73.38;;;102.70;2227.20;;;;;;5072687;28;20024;-75
2022/03/23 01:36:39;;;;;;;129.07;78.63;;;102.50;2227.20;;;;;;5073920;28;20052;-75
2022/03/23 01:39:05;;;;;;;108.95;69.47;;;102.70;2227.20;;;;;;5073229;28;20079;-75
2022/03/23 01:41:35;;;;;;;102.68;65.35;;;102.70;2227.20;;;;;;5073478;28;20028;-76
2022/03/23 01:44:01;;;;;;;107.50;64.40;;;102.70;2227.20;;;;;;5072722;28;20464;-75
2022/03/23 01:46:27;;;;;;;99.63;61.03;;;102.60;2227.20;;;;;;5069894;28;20104;-76
2022/03/23 01:48:52;;;;;;;102.28;61.97;;;102.70;2227.20;;;;;;5072570;28;20460;-75
2022/03/23 01:51:18;;;;;;;91.72;56.97;;;102.70;2227.20;;;;;;5072974;28;20029;-75
2022/03/23 01:53:43;;;;;;;103.30;62.33;;;102.60;2227.20;;;;;;5074254;28;20074;-76
2022/03/23 01:56:11;;;;;;;106.03;63.53;;;102.60;2227.20;;;;;;5074236;28;20431;-76
2022/03/23 01:58:37;;;;;;;108.93;61.10;;;102.60;2227.20;;;;;;5073750;28;20028;-76
2022/03/23 02:01:03;;;;;;;96.68;60.70;;;102.60;2227.20;;;;;;5073778;28;20032;-76
2022/03/23 02:03:29;;;;;;;109.68;66.32;;;102.50;2227.20;;;;;;5074037;28;20036;-76
2022/03/23 02:05:55;;;;;;;112.70;68.60;;;102.40;2227.20;;;;;;5072417;28;20029;-76
2022/03/23 02:08:21;;;;;;;119.50;70.22;;;102.40;2227.20;;;;;;5073359;28;20025;-76
2022/03/23 02:10:47;;;;;;;117.32;70.85;;;102.50;2227.20;;;;;;5073990;28;20089;-75
2022/03/23 02:13:13;;;;;;;135.57;76.68;;;102.40;2227.20;;;;;;5106114;28;20483;-76
2022/03/23 02:15:39;;;;;;;118.35;72.55;;;77.70;2227.20;;;;;;5073885;28;20487;-76
2022/03/23 02:18:06;;;;;;;104.03;67.13;;;77.70;2227.20;;;;;;5072359;28;20115;-77
2022/03/23 02:20:32;;;;;;;86.00;49.53;;;102.40;2227.20;;;;;;5074001;28;20032;-77
2022/03/23 02:22:58;;;;;;;49.05;30.63;;;102.40;2227.20;;;;;;5072442;28;20029;-76
2022/03/23 02:25:26;;;;;;;56.83;37.50;;;77.60;2227.20;;;;;;5072389;28;20024;-76
2022/03/23 02:27:53;;;;;;;65.88;34.78;;;77.50;2227.20;;;;;;5073725;28;20071;-78
2022/03/23 02:30:21;;;;;;;66.22;39.30;;;;;;;;;;5073232;28;20020;-76
2022/03/23 02:32:48;;;;;;;62.13;38.28;;;;;;;;;;5073539;28;20023;-76
2022/03/23 02:35:15;;;;;;;57.20;37.35;;;77.60;2227.20;;;;;;5073111;28;20020;-77
2022/03/23 02:37:41;;;;;;;73.00;46.60;;;77.50;2227.20;;;;;;5105950;28;20049;-75
2022/03/23 02:40:09;;;;;;;109.20;69.75;;;77.50;2227.20;;;;;;5072178;28;20029;-76
2022/03/23 02:42:36;;;;;;;85.82;51.78;;;77.40;2227.20;;;;;;5073341;28;20082;-77
2022/03/23 02:45:02;;;;;;;105.90;66.75;;;77.40;2227.20;;;;;;5073158;28;20131;-75
2022/03/23 02:47:28;;;;;;;88.18;56.15;;;77.30;2227.20;;;;;;5073475;28;20103;-75
2022/03/23 02:49:53;;;;;;;118.95;73.35;;;77.30;2227.20;;;;;;5073528;28;20033;-76
2022/03/23 02:52:19;;;;;;;90.85;56.30;;;77.30;2227.20;;;;;;5071814;28;20029;-77
2022/03/23 03:03:41;;;;;;;124.45;72.43;;;77.20;2227.20;;;;;;5072729;28;20098;-76
2022/03/23 03:06:07;;;;;;;99.50;59.58;;;;;;;;;;5105428;28;20029;-76
2022/03/23 03:08:45;;;;;;;86.63;49.67;;;;;;;;;;5072786;28;20067;-76
2022/03/23 03:11:12;;;;;;;92.65;50.40;;;;;;;;;;5072818;28;20111;-76
2022/03/23 03:13:40;;;;;;;85.38;50.63;;;;;;;;;;5071037;28;20048;-76
2022/03/23 03:16:06;;;;;;;82.70;50.35;;;;;;;;;;5072656;28;20052;-76
2022/03/23 03:18:33;;;;;;;81.13;49.95;;;;;;;;;;5071363;28;20097;-77
2022/03/23 03:21:00;;;;;;;88.10;48.75;;;;;;;;;;5072229;28;20021;-75
2022/03/23 03:23:26;;;;;;;73.53;43.78;;;77.20;2227.20;;;;;;5071274;28;20040;-77
2022/03/23 03:25:52;;;;;;;91.22;46.92;;;77.10;2227.20;;;;;;5072554;28;20036;-75
2022/03/23 03:28:17;;;;;;;69.05;42.22;;;76.90;2227.20;;;;;;5072554;28;20057;-77
2022/03/23 03:30:43;;;;;;;57.70;36.75;;;76.90;2227.20;;;;;;5070753;28;20506;-76
2022/03/23 03:33:09;;;;;;;70.28;37.83;;;52.10;2227.20;;;;;;5072166;28;20032;-77
2022/03/23 03:35:35;;;;;;;76.70;37.92;;;52.10;2227.20;;;;;;5072669;28;20031;-76
2022/03/23 03:38:01;;;;;;;67.47;39.15;;;52.10;2227.20;;;;;;5071028;28;20021;-76
2022/03/23 03:40:26;;;;;;;108.20;61.88;;;76.80;2227.20;;;;;;5072456;28;20495;-77
2022/03/23 03:42:52;;;;;;;98.97;59.05;;;76.80;2227.20;;;;;;5087716;28;20467;-75
2022/03/23 03:45:18;;;;;;;59.67;33.90;;;52.00;2227.20;;;;;;5070907;28;20070;-77
2022/03/23 03:47:44;;;;;;;71.45;41.45;;;52.00;2227.20;;;;;;5072259;28;20056;-75
2022/03/23 03:50:11;;;;;;;101.45;59.00;;;52.00;2227.20;;;;;;5071066;28;20024;-76
2022/03/23 03:52:37;;;;;;;91.70;59.65;;;52.00;2227.20;;;;;;5071729;28;20027;-77
2022/03/23 03:55:03;;;;;;;99.00;52.28;;;;;;;;;;5072001;28;20020;-76
2022/03/23 03:57:29;;;;;;;83.35;51.47;;;;;;;;;;5070863;28;20067;-75
2022/03/23 03:59:55;;;;;;;70.13;42.60;;;;;;;;;;5070704;28;20028;-75
2022/03/23 04:02:21;;;;;;;63.83;40.50;;;;;;;;;;5071748;28;20477;-75
2022/03/23 04:04:47;;;;;;;89.40;47.33;;;;;;;;;;5070690;28;20119;-77
2022/03/23 04:07:13;;;;;;;95.78;54.17;;;;;;;;;;5070645;28;20017;-77
2022/03/23 04:09:40;;;;;;;82.13;46.60;;;;;;;;;;5070788;28;20032;-75
2022/03/23 04:12:06;;;;;;;98.20;55.50;;;;;;;;;;5071556;28;20031;-77
2022/03/23 04:14:32;;;;;;;93.18;55.60;;;;;;;;;;5071799;28;20032;-76
2022/03/23 04:16:58;;;;;;;94.57;55.50;;;;;;;;;;5071501;28;20024;-75
2022/03/23 04:19:24;;;;;;;105.68;64.90;;;;;;;;;;5071142;28;20025;-77
2022/03/23 04:21:50;;;;;;;102.63;61.97;;;;;;;;;;5070592;28;20016;-75
2022/03/23 04:24:16;;;;;;;125.82;75.63;;;;;;;;;;5070523;28;20037;-75
2022/03/23 04:26:44;;;;;;;133.98;76.40;;;;;;;;;;5070518;28;20021;-76
2022/03/23 04:29:10;;;;;;;120.57;66.80;;;;;;;;;;5070439;28;20029;-77
2022/03/23 04:31:36;;;;;;;103.22;66.72;;;;;;;;;;5071469;28;20017;-76
2022/03/23 04:34:02;;;;;;;103.25;64.45;;;;;;;;;;5071413;28;20023;-76
2022/03/23 04:36:28;;;;;;;107.68;60.20;;;;;;;;;;5071384;28;20023;-77
2022/03/23 04:38:54;;;;;;;86.07;53.42;;;;;;;;;;5070392;28;20063;-78
2022/03/23 04:41:20;;;;;;;59.65;41.75;;;;;;;;;;5070382;28;20048;-77
2022/03/23 04:43:47;;;;;;;87.03;50.90;;;;;;;;;;5071585;28;20032;-76
2022/03/23 04:46:13;;;;;;;86.13;48.92;;;;;;;;;;5071806;28;20090;-76
2022/03/23 04:48:40;;;;;;;80.45;46.67;;;;;;;;;;5071713;28;20020;-77
2022/03/23 04:51:06;;;;;;;61.38;34.85;;;52.00;2227.20;;;;;;5070949;28;20025;-77
2022/03/23 04:53:31;;;;;;;61.22;31.23;;;51.70;2227.20;;;;;;5070222;28;20476;-76
2022/03/23 04:55:57;;;;;;;54.90;32.17;;;51.60;2227.20;;;;;;5071473;28;20107;-76
2022/03/23 04:58:24;;;;;;;60.40;36.03;;;51.60;2227.20;;;;;;5070175;28;20464;-75
2022/03/23 05:00:50;;;;;;;71.78;38.65;;;51.70;2227.20;;;;;;5069759;28;20099;-75
2022/03/23 05:03:16;;;;;;;110.07;56.08;;;51.70;2227.20;;;;;;5096032;28;20120;-75
2022/03/23 05:05:43;;;;;;;78.53;41.63;;;51.70;2227.20;;;;;;5074267;28;20056;-76
2022/03/23 05:08:09;;;;;;;69.80;35.63;;;51.80;2227.20;;;;;;5069808;28;20040;-75
2022/03/23 05:10:35;;;;;;;61.78;39.17;;;51.70;2227.20;;;;;;5073007;28;20383;-76
2022/03/23 05:13:00;;;;;;;69.45;40.72;;;51.70;2227.20;;;;;;5068225;28;20044;-75
2022/03/23 05:15:26;;;;;;;78.57;39.33;;;51.80;2227.20;;;;;;5095374;28;20036;-78
2022/03/23 05:17:52;;;;;;;62.92;38.17;;;51.90;2227.20;;;;;;5073720;28;20100;-77
2022/03/23 05:20:18;;;;;;;60.03;35.78;;;52.00;2227.20;;;;;;5073051;28;20554;-76
2022/03/23 05:22:44;;;;;;;52.90;33.85;;;52.00;2227.20;;;;;;5073733;28;20032;-76
2022/03/23 05:25:11;;;;;;;71.38;37.60;;;51.90;2227.20;;;;;;5073658;28;20024;-78
2022/03/23 05:27:39;;;;;;;58.30;33.05;;;52.00;2227.20;;;;;;5074017;28;20020;-76
2022/03/23 05:30:08;;;;;;;54.70;29.88;;;52.00;2227.20;;;;;;5080766;28;20016;-76
2022/03/23 05:32:34;;;;;;;39.97;25.75;;;52.00;2227.20;;;;;;5070769;28;20039;-75
2022/03/23 05:35:00;;;;;;;53.55;28.85;;;51.80;2227.20;;;;;;5071613;28;20111;-76
2022/03/23 05:37:26;;;;;;;49.53;29.23;;;51.90;2227.20;;;;;;5072568;28;20574;-75
2022/03/23 05:39:52;;;;;;;38.00;24.15;;;52.00;2227.20;;;;;;5073515;28;20023;-77
2022/03/23 05:42:18;;;;;;;33.28;19.42;;;76.80;2227.20;;;;;;5071738;28;20381;-74
2022/03/23 05:44:45;;;;;;;40.50;22.63;;;52.00;2227.20;;;;;;5071312;28;20040;-76
2022/03/23 05:47:10;;;;;;;34.97;19.98;;;52.00;2227.20;;;;;;5069854;28;20070;-75
2022/03/23 05:49:37;;;;;;;34.55;21.52;;;52.00;2227.20;;;;;;5104861;28;20032;-76
2022/03/23 05:52:03;;;;;;;35.60;19.90;;;52.10;2227.20;;;;;;5073642;28;20024;-76
2022/03/23 05:54:29;;;;;;;39.13;22.30;;;76.80;2227.20;;;;;;5072677;28;20031;-78
2022/03/23 05:56:54;;;;;;;42.28;23.90;;;76.80;2227.20;;;;;;5073636;28;20021;-77
2022/03/23 05:59:20;;;;;;;44.85;26.15;;;76.90;2227.20;;;;;;5073012;28;20023;-77
2022/03/23 06:01:46;;;;;;;44.95;24.77;;;77.10;2227.20;;;;;;5072187;28;20029;-76
2022/03/23 06:04:12;;;;;;;46.50;25.88;;;77.40;2227.20;;;;;;5074042;28;20437;-78
2022/03/23 06:06:38;;;;;;;42.45;25.55;;;77.40;2227.20;;;;;;5072705;28;20024;-77
2022/03/23 06:09:05;;;;;;;39.33;22.70;;;77.60;2227.20;;;;;;5071844;28;20107;-79
2022/03/23 06:11:30;;;;;;;51.80;25.33;;;77.60;2227.20;;;;;;5069572;28;20072;-84
2022/03/23 06:13:57;;;;;;;46.67;24.42;;;77.70;2227.20;;;;;;5070321;28;20502;-75
2022/03/23 06:16:23;;;;;;;45.88;26.23;;;77.70;2227.20;;;;;;5073150;28;20062;-75
2022/03/23 06:18:49;;;;;;;43.88;26.10;;;102.50;2227.20;;;;;;5071724;28;20025;-76
2022/03/23 06:21:15;;;;;;;60.95;30.45;;;102.60;2227.20;;;;;;5085368;28;20036;-78
2022/03/23 06:23:41;;;;;;;46.97;27.08;;;102.70;2227.20;;;;;;5052282;28;20051;-76
2022/03/23 06:26:07;;;;;;;49.80;24.58;;;102.90;2227.20;;;;;;5064875;28;20025;-77
2022/03/23 06:28:34;;;;;;;52.45;27.98;;;103.00;2227.20;;;;;;5073696;28;20025;-91
2022/03/23 06:30:59;;;;;;;48.47;28.13;;;103.10;2227.20;;;;;;5069049;28;20052;-82
2022/03/23 06:33:26;;;;;;;48.35;28.27;;;103.30;2227.20;;;;;;5070294;28;20044;-80
2022/03/23 06:35:51;;;;;;;57.20;31.17;;;128.10;2252.80;;;;;;5072736;28;20481;-82
2022/03/23 06:38:18;;;;;;;51.80;29.20;;;128.20;2252.80;;;;;;5072831;28;20020;-79
2022/03/23 06:40:44;;;;;;;56.38;32.58;;;128.40;2252.80;;;;;;5071722;28;20024;-81
2022/03/23 06:43:10;;;;;;;57.55;31.00;;;128.50;2252.80;;;;;;5078416;28;20518;-78
2022/03/23 06:45:40;;;;;;;50.03;30.25;;;128.70;2252.80;;;;;;5089732;28;20028;-80
2022/03/23 06:48:06;;;;;;;60.05;32.88;;;;;;;;;;5063539;28;20033;-79
2022/03/23 06:50:32;;;;;;;48.28;30.10;;;153.70;2252.80;;;;;;5070750;28;20030;-76
2022/03/23 06:52:58;;;;;;;57.67;35.08;;;153.70;2252.80;;;;;;5071417;28;20154;-79
2022/03/23 06:55:23;;;;;;;60.30;31.55;;;153.80;2252.80;;;;;;5073267;28;20103;-81
2022/03/23 06:57:49;;;;;;;66.80;33.78;;;154.10;2176.00;;;;;;5071771;28;20476;-79
2022/03/23 07:00:15;;;;;;;57.60;32.65;;;154.30;2099.20;;;;;;5073013;28;20365;-80
2022/03/23 07:02:43;;;;;;;62.55;34.40;;;154.20;2099.20;;;;;;5088820;28;20052;-83
2022/03/23 07:05:09;;;;;;;54.47;30.45;;;154.50;2073.60;;;;;;5071819;28;20086;-81
2022/03/23 07:07:36;;;;;;;58.72;34.03;;;179.20;2022.40;;;;;;5071449;28;20071;-82
2022/03/23 07:10:03;;;;;;;57.72;31.25;;;179.30;1971.20;;;;;;5072807;28;20459;-80
2022/03/23 07:12:29;;;;;;;53.95;31.95;;;179.50;1920.00;;;;;;5088215;28;20052;-82
2022/03/23 07:14:55;;;;;;;56.50;30.27;;;179.70;1868.80;;;;;;5072431;28;20392;-79
2022/03/23 07:17:21;;;;;;;63.28;28.58;;;179.90;1843.20;;;;;;5072664;28;20021;-77
2022/03/23 07:19:46;;;;;;;62.00;31.40;;;180.10;1792.00;;;;;;5088204;28;20029;-78
2022/03/23 07:22:14;;;;;;;43.65;26.90;;;204.90;1766.40;;;;;;5072347;28;20032;-78
2022/03/23 07:24:40;;;;;;;48.28;29.75;;;205.00;1740.80;;;;;;5071797;28;20047;-78
2022/03/23 07:27:05;;;;;;;49.38;23.70;;;205.10;1715.20;;;;;;5072495;28;20028;-79
2022/03/23 07:29:31;;;;;;;59.08;31.40;;;205.30;1638.40;;;;;;5088037;28;20033;-78
2022/03/23 07:31:57;;;;;;;57.45;30.67;;;205.50;1638.40;;;;;;5072456;28;20509;-78
2022/03/23 07:34:23;;;;;;;71.10;34.15;;;205.60;1638.40;;;;;;5071938;28;20375;-78
2022/03/23 07:36:49;;;;;;;79.15;37.22;;;230.40;1612.80;;;;;;5072290;28;20021;-78
2022/03/23 07:39:20;;;;;;;54.13;27.77;;;230.60;1587.20;;;;;;5072096;28;20083;-77
2022/03/23 07:41:50;;;;;;;51.08;27.80;;;230.80;1536.00;;;;;;5072256;28;20475;-79
2022/03/23 07:44:17;;;;;;;45.20;25.60;;;230.90;1510.40;;;;;;5071990;28;20115;-80
2022/03/23 07:46:43;;;;;;;53.92;28.77;;;230.90;1484.80;;;;;;5071529;28;20395;-78
2022/03/23 07:49:08;;;;;;;55.40;25.65;;;231.10;1484.80;;;;;;5071831;28;20024;-79
2022/03/23 07:51:34;;;;;;;41.75;24.08;;;231.30;1484.80;;;;;;5087603;28;20029;-76
2022/03/23 07:54:00;;;;;;;43.95;24.98;;;256.10;1459.20;;;;;;5072080;28;20020;-78
2022/03/23 07:56:26;;;;;;;47.83;26.00;;;256.10;1433.60;;;;;;5071926;28;20517;-78
2022/03/23 07:58:52;;;;;;;41.75;25.38;;;256.20;1459.20;;;;;;5070460;28;20040;-78
2022/03/23 08:01:18;;;;;;;36.78;23.38;;;256.30;1433.60;;;;;;5071427;28;20095;-79
2022/03/23 08:03:43;;;;;;;46.55;22.85;;;256.60;1433.60;;;;;;5071716;28;20479;-78
2022/03/23 08:06:09;;;;;;;44.65;24.38;;;256.50;1408.00;;;;;;5071996;28;20104;-77
2022/03/23 08:08:35;;;;;;;39.63;22.95;;;256.60;1408.00;;;;;;5104348;28;20386;-78
2022/03/23 08:11:00;;;;;;;51.95;23.13;;;256.60;1408.00;;;;;;5071794;28;20035;-77
2022/03/23 08:13:26;;;;;;;40.88;20.45;;;256.60;1408.00;;;;;;5070036;28;20609;-78
2022/03/23 08:15:52;;;;;;;40.20;22.77;;;256.80;1408.00;;;;;;5071813;28;20031;-78
2022/03/23 08:18:21;;;;;;;35.35;20.67;;;256.90;1382.40;;;;;;5071889;28;20025;-77
2022/03/23 08:20:48;;;;;;;43.35;20.73;;;281.70;1382.40;;;;;;5071891;28;20039;-78
2022/03/23 08:23:16;;;;;;;34.22;19.65;;;282.00;1356.80;;;;;;5071612;28;20123;-77
2022/03/23 08:25:43;;;;;;;39.15;20.25;;;282.10;1356.80;;;;;;5071860;28;20486;-78
2022/03/23 08:28:11;;;;;;;33.10;20.83;;;282.30;1331.20;;;;;;5071599;28;20020;-78
2022/03/23 08:30:37;;;;;;;36.42;17.92;;;282.50;1331.20;;;;;;5071509;28;20056;-78
2022/03/23 08:33:05;;;;;;;39.72;19.77;;;307.20;1356.80;;;;;;5071259;28;20060;-77
2022/03/23 08:35:31;;;;;;;52.83;18.58;;;282.50;1305.60;;;;;;5071263;28;20437;-75
2022/03/23 08:37:57;;;;;;;37.80;16.88;;;282.40;1331.20;;;;;;5075975;28;20071;-75
2022/03/23 08:40:23;;;;;;;36.20;16.05;;;307.30;1331.20;;;;;;5076045;28;20051;-76
2022/03/23 08:42:49;;;;;;;32.85;16.73;;;307.30;1331.20;;;;;;5074831;28;20103;-77
2022/03/23 08:45:17;;;;;;;38.90;15.73;;;307.40;1305.60;;;;;;5074002;28;20036;-77
2022/03/23 08:47:43;;;;;;;34.85;14.75;;;307.50;1305.60;;;;;;5075644;28;20515;-76
2022/03/23 08:50:12;;;;;;;30.02;14.02;;;307.20;1305.60;;;;;;5075152;28;20091;-77
2022/03/23 08:52:39;;;;;;;31.60;14.88;;;307.30;1305.60;;;;;;5075356;28;20029;-77
2022/03/23 08:55:07;;;;;;;40.83;15.27;;;307.50;1305.60;;;;;;5075058;28;20053;-77
2022/03/23 08:57:33;;;;;;;25.73;12.93;;;307.70;1280.00;;;;;;5074204;28;20028;-78
2022/03/23 08:59:59;;;;;;;27.92;14.35;;;307.80;1280.00;;;;;;5074856;28;20020;-76
2022/03/23 09:02:25;;;;;;;19.55;10.02;;;307.90;1280.00;;;;;;5075082;28;20024;-78
2022/03/23 09:04:51;;;;;;;33.40;11.48;;;308.00;1254.40;;;;;;5074963;28;20055;-77
2022/03/23 09:07:17;;;;;;;27.35;12.77;;;332.80;1280.00;;;;;;5073546;28;20472;-77
2022/03/23 09:09:42;;;;;;;19.63;10.48;;;332.90;1280.00;;;;;;5073564;28;20028;-79
2022/03/23 09:12:09;;;;;;;26.58;12.65;;;333.00;1280.00;;;;;;5074529;28;20031;-78
2022/03/23 09:14:35;;;;;;;34.22;12.23;;;333.10;1280.00;;;;;;5107080;28;20060;-78
2022/03/23 09:17:02;;;;;;;29.13;13.05;;;333.30;1280.00;;;;;;5072594;28;20016;-79
2022/03/23 09:19:27;;;;;;;32.50;11.77;;;333.40;1254.40;;;;;;5073426;28;20154;-77
2022/03/23 09:21:54;;;;;;;25.10;11.35;;;333.50;1254.40;;;;;;5073400;28;20444;-79
2022/03/23 09:24:19;;;;;;;27.52;15.65;;;333.60;1228.80;;;;;;5090023;28;20567;-77
2022/03/23 09:26:47;;;;;;;26.65;12.77;;;333.60;1280.00;;;;;;5074657;28;20024;-77
2022/03/23 09:29:13;;;;;;;22.73;13.43;;;333.70;1254.40;;;;;;5074699;28;20442;-77
2022/03/23 09:31:39;;;;;;;33.42;20.20;;;358.40;1280.00;;;;;;5072557;28;20032;-76
2022/03/23 09:34:06;;;;;;;22.45;10.27;;;358.60;1280.00;;;;;;5074718;28;20024;-76
2022/03/23 09:39:17;;;;;;;17.48;8.48;;;358.50;1228.80;;;;;;5074051;28;20050;-75
2022/03/23 09:41:45;;;;;;;25.83;10.27;;;358.70;1228.80;;;;;;5071905;28;20376;-76
2022/03/23 09:44:12;;;;;;;30.88;11.43;;;358.70;1228.80;;;;;;5067449;28;20039;-76
2022/03/23 09:46:38;;;;;;;20.27;8.38;;;358.80;1203.20;;;;;;5073091;28;20115;-76
2022/03/23 09:49:07;;;;;;;28.48;13.10;;;358.80;1203.20;;;;;;5073285;28;20035;-75
2022/03/23 09:51:35;;;;;;;33.10;10.48;;;358.90;1203.20;;;;;;5073901;28;20562;-76
2022/03/23 09:54:02;;;;;;;27.75;10.45;;;359.00;1203.20;;;;;;5072781;28;20107;-75
2022/03/23 09:56:28;;;;;;;20.23;9.93;;;;;;;;;;5073558;28;20452;-75
2022/03/23 09:58:54;;;;;;;30.75;11.25;;;384.10;1177.60;;;;;;5074200;28;20082;-76
2022/03/23 10:02:12;;;;;;;27.83;9.85;;;359.20;1203.20;;;;;;5073834;28;20036;-77
2022/03/23 10:04:49;;;;;;;19.70;9.10;;;384.00;1152.00;;;;;;5031621;28;20045;-76
2022/03/23 10:07:28;;;;;;;22.70;11.77;;;;;;;;;;5076636;28;20037;-76
2022/03/23 10:10:09;;;;;;;43.40;23.35;;;;;;;;;;5071158;28;20036;-75
2022/03/23 10:12:54;;;;;;;26.75;19.30;;;;;;;;;;5049954;28;20056;-76
2022/03/23 10:15:39;;;;;;;22.13;12.70;;;;;;;;;;5058466;28;20150;-74
2022/03/23 10:18:23;;;;;;;29.30;13.10;;;;;;;;;;5072592;28;20070;-75
2022/03/23 10:20:49;;;;;;;26.10;17.80;;;384.60;1152.00;;;;;;5073528;28;20028;-75
2022/03/23 10:23:20;;;;;;;34.88;17.67;;;384.50;1152.00;;;;;;5073111;28;20024;-75
2022/03/23 10:25:46;;;;;;;31.58;16.77;;;;;;;;;;5072910;28;20036;-73
2022/03/23 10:28:17;;;;;;;56.30;33.15;;;;;;;;;;5073426;28;20024;-75
2022/03/23 10:30:44;;;;;;;27.70;18.20;;;;;;;;;;5073386;28;20021;-74
2022/03/23 10:33:17;;;;;;;33.80;15.35;;;;;;;;;;5071979;28;20033;-74
2022/03/23 10:35:43;;;;;;;;;;;410.20;1126.40;;;;;;5073761;28;20025;-75
2022/03/23 10:38:10;;;;;;;31.67;12.18;;;;;;;;;;5073398;28;20283;-75
2022/03/23 10:40:36;;;;;;;26.30;13.27;;;;;;;;;;5071682;28;20042;-75
2022/03/23 10:43:02;;;;;;;31.27;11.57;;;;;;;;;;5073223;28;20021;-75
2022/03/23 10:45:31;;;;;;;19.00;9.25;;;;;;;;;;5071949;28;20016;-75
2022/03/23 10:48:07;;;;;;;26.48;13.90;;;;;;;;;;5073383;28;20086;-76
2022/03/23 10:50:33;;;;;;;31.65;18.67;;;;;;;;;;5072670;28;20078;-75
2022/03/23 10:53:01;;;;;;;32.47;13.65;;;;;;;;;;5072817;28;20028;-74
2022/03/23 10:55:32;;;;;;;24.52;13.23;;;;;;;;;;5072882;28;20476;-75
2022/03/23 10:58:01;;;;;;;26.80;15.13;;;460.90;1049.60;;;;;;5071620;28;20439;-75
2022/03/23 11:00:38;;;;;;;26.58;14.15;;;461.00;1024.00;;;;;;5072690;28;20033;-75
2022/03/23 11:03:06;;;;;;;27.60;14.57;;;486.50;972.80;;;;;;5072314;28;20392;-75
2022/03/23 11:05:43;;;;;;;23.42;13.20;;;512.00;947.20;;;;;;5071479;28;20426;-75
2022/03/23 11:08:31;;;;;;;24.08;11.18;;;537.60;921.60;;;;;;5072824;28;20029;-75
2022/03/23 11:16:36;;;;;;;20.80;11.38;;;512.20;921.60;;;;;;5071161;28;20024;-76
2022/03/23 11:19:12;;;;;;;19.70;12.13;;;;;;;;;;5068355;28;20052;-76
2022/03/23 11:22:04;;;;;;;15.27;9.88;;;563.20;896.00;;;;;;5072656;28;20091;-76
2022/03/23 11:24:40;;;;;;;19.40;10.10;;;563.50;896.00;;;;;;5072174;28;20041;-75
2022/03/23 11:27:11;;;;;;;24.58;10.25;;;588.80;870.40;;;;;;5071145;28;20064;-74
2022/03/23 11:29:39;;;;;;;25.10;13.18;;;564.00;844.80;;;;;;5072304;28;20059;-74
2022/03/23 11:32:13;;;;;;;27.13;13.55;;;588.80;844.80;;;;;;5070568;28;20025;-76
2022/03/23 11:34:40;;;;;;;20.65;10.73;;;589.60;819.20;;;;;;5072173;28;20020;-74
2022/03/23 11:37:07;;;;;;;18.73;10.15;;;589.40;819.20;;;;;;5072485;28;20025;-74
2022/03/23 11:39:34;;;;;;;19.98;9.23;;;;;;;;;;5071733;28;20480;-74
2022/03/23 11:42:04;;;;;;;20.13;8.80;;;;;;;;;;5071789;28;20103;-76
2022/03/23 11:44:30;;;;;;;19.90;9.02;;;614.60;793.60;;;;;;5070401;28;20033;-74
2022/03/23 11:47:06;;;;;;;20.50;8.15;;;614.90;793.60;;;;;;5072180;28;20028;-75
2022/03/23 11:49:32;;;;;;;22.58;9.73;;;;;;;;;;5071135;28;20040;-76
2022/03/23 11:52:16;;;;;;;16.30;9.55;;;;;;;;;;5071990;28;20028;-75
2022/03/23 11:57:55;;;;;;;21.80;10.65;;;;;;;;;;5071581;28;20079;-75
2022/03/23 12:00:22;;;;;;;15.90;9.02;;;;;;;;;;5068678;28;20039;-74
2022/03/23 12:02:48;;;;;;;23.40;14.38;;;;;;;;;;5071919;28;20042;-74
2022/03/23 12:05:30;;;;;;;34.22;16.52;;;;;;;;;;5071570;28;20063;-75
2022/03/23 12:07:56;;;;;;;26.03;10.30;;;;;;;;;;5071748;28;20068;-74
2022/03/23 12:10:24;;;;;;;36.70;22.27;;;;;;;;;;5071151;28;20242;-74
2022/03/23 12:12:50;;;;;;;20.92;10.65;;;;;;;;;;5071654;28;20049;-76
2022/03/23 12:15:22;;;;;;;23.85;10.13;;;;;;;;;;5071291;28;20020;-74
2022/03/23 12:17:55;;;;;;;18.30;7.50;;;;;;;;;;5070085;28;20112;-75
2022/03/23 12:20:31;;;;;;;17.60;8.63;;;;;;;;;;5064626;28;20074;-77
2022/03/23 12:23:02;;;;;;;25.58;10.32;;;;;;;;;;5071111;28;20021;-75
2022/03/23 12:25:54;;;;;;;21.00;8.57;;;;;;;;;;5071408;28;20083;-77
2022/03/23 12:28:26;;;;;;;28.35;14.13;;;;;;;;;;5050252;28;20105;-74
2022/03/23 12:30:58;;;;;;;31.83;12.32;;;666.10;742.40;;;;;;5051504;28;20029;-74
2022/03/23 12:33:28;;;;;;;27.92;17.88;;;;;;;;;;5051486;28;20483;-74
2022/03/23 12:36:01;;;;;;;28.58;15.32;;;;;;;;;;5051617;28;20025;-74
2022/03/23 12:38:29;;;;;;;18.23;8.48;;;;;;;;;;5051008;28;20021;-74
2022/03/23 12:41:02;;;;;;;22.02;12.90;;;;;;;;;;5051372;28;20530;-75
2022/03/23 12:43:42;;;;;;;25.50;15.27;;;717.30;691.20;;;;;;5054584;28;20403;-73
2022/03/23 12:46:18;;;;;;;21.35;9.73;;;;;;;;;;5070143;28;20028;-75
2022/03/23 13:00:08;;;;;;;20.08;9.25;;;;;;;;;;5071013;28;20032;-74
2022/03/23 13:02:34;;;;;;;17.80;8.13;;;;;;;;;;5071414;28;20050;-74
2022/03/23 13:05:05;;;;;;;20.15;9.02;;;;;;;;;;5071079;28;20390;-75